createdAt,value
2019-05-15T00:01:10.208Z,9.52
2019-05-15T00:03:42.744Z,9.45
2019-05-15T00:06:15.394Z,9.38
2019-05-15T00:08:50.229Z,9.34
2019-05-15T00:11:28.722Z,9.30
2019-05-15T00:14:08.524Z,9.24
2019-05-15T00:16:42.111Z,9.21
2019-05-15T00:19:14.665Z,9.16
2019-05-15T00:21:49.623Z,9.17
2019-05-15T00:24:23.493Z,9.14
2019-05-15T00:26:56.067Z,9.17
2019-05-15T00:29:29.018Z,9.11
2019-05-15T00:32:01.883Z,9.20
2019-05-15T00:34:34.411Z,9.12
2019-05-15T00:37:08.943Z,9.07
2019-05-15T00:39:41.562Z,9.08
2019-05-15T00:42:14.185Z,9.08
2019-05-15T00:44:49.295Z,9.01
2019-05-15T00:47:21.979Z,8.98
2019-05-15T00:49:57.985Z,8.97
2019-05-15T00:52:30.836Z,8.94
2019-05-15T00:55:04.952Z,8.93
2019-05-15T00:57:39.319Z,9.03
2019-05-15T01:00:13.509Z,8.95
2019-05-15T01:02:46.041Z,9.02
2019-05-15T01:05:18.676Z,8.91
2019-05-15T01:07:51.257Z,8.82
2019-05-15T01:10:23.834Z,8.90
2019-05-15T01:12:58.420Z,8.83
2019-05-15T01:15:31.222Z,8.87
2019-05-15T01:18:04.017Z,8.78
2019-05-15T01:20:38.917Z,8.73
2019-05-15T01:23:11.972Z,8.74
2019-05-15T01:25:44.818Z,8.72
2019-05-15T01:28:18.401Z,8.68
2019-05-15T01:30:51.051Z,8.72
2019-05-15T01:33:23.652Z,8.63
2019-05-15T01:35:56.449Z,8.55
2019-05-15T01:38:28.990Z,8.56
2019-05-15T01:41:01.815Z,8.51
2019-05-15T01:43:34.411Z,8.47
2019-05-15T01:46:08.380Z,8.56
2019-05-15T01:48:41.156Z,8.48
2019-05-15T01:51:13.750Z,8.45
2019-05-15T01:53:48.170Z,8.42
2019-05-15T01:56:20.712Z,8.39
2019-05-15T01:58:53.344Z,8.35
2019-05-15T02:01:28.369Z,8.35
2019-05-15T02:04:01.730Z,8.32
2019-05-15T02:06:35.258Z,8.31
2019-05-15T02:09:08.530Z,8.26
2019-05-15T02:11:41.505Z,8.18
2019-05-15T02:14:14.000Z,8.12
2019-05-15T02:16:48.357Z,8.10
2019-05-15T02:19:21.176Z,8.05
2019-05-15T02:21:53.796Z,8.01
2019-05-15T02:24:28.400Z,7.99
2019-05-15T02:27:01.157Z,7.99
2019-05-15T02:29:34.591Z,8.01
2019-05-15T02:32:10.255Z,8.00
2019-05-15T02:34:43.257Z,8.00
2019-05-15T02:37:19.029Z,7.96
2019-05-15T02:39:52.056Z,8.06
2019-05-15T02:42:24.673Z,8.03
2019-05-15T02:44:58.692Z,8.12
2019-05-15T02:47:31.409Z,8.05
2019-05-15T02:50:03.983Z,8.02
2019-05-15T02:52:39.720Z,7.97
2019-05-15T02:55:15.361Z,7.95
2019-05-15T02:57:49.502Z,8.04
2019-05-15T03:00:36.732Z,7.90
2019-05-15T03:03:16.558Z,7.99
2019-05-15T03:05:49.871Z,8.03
2019-05-15T03:08:22.625Z,7.92
2019-05-15T03:10:55.179Z,8.02
2019-05-15T03:13:29.944Z,7.93
2019-05-15T03:16:02.803Z,7.88
2019-05-15T03:18:35.389Z,7.76
2019-05-15T03:21:09.512Z,7.74
2019-05-15T03:23:42.486Z,7.69
2019-05-15T03:26:15.181Z,7.68
2019-05-15T03:28:49.633Z,7.68
2019-05-15T03:31:40.061Z,7.67
2019-05-15T03:34:28.893Z,7.77
2019-05-15T03:37:12.052Z,7.68
2019-05-15T03:39:48.461Z,7.63
2019-05-15T03:42:25.032Z,7.76
2019-05-15T03:44:59.718Z,7.65
2019-05-15T03:47:33.967Z,7.61
2019-05-15T03:50:08.985Z,7.59
2019-05-15T03:52:42.774Z,7.54
2019-05-15T03:55:15.278Z,7.65
2019-05-15T03:57:49.938Z,7.60
2019-05-15T04:00:25.880Z,7.57
2019-05-15T04:02:59.195Z,7.56
2019-05-15T04:05:31.732Z,7.52
2019-05-15T04:08:05.373Z,7.61
2019-05-15T04:10:39.889Z,7.56
2019-05-15T04:13:12.980Z,7.54
2019-05-15T04:15:45.886Z,7.55
2019-05-15T04:18:19.878Z,7.58
2019-05-15T04:20:52.794Z,7.59
2019-05-15T04:23:25.327Z,7.63
2019-05-15T04:26:00.135Z,7.77
2019-05-15T04:28:32.778Z,7.76
2019-05-15T04:31:05.467Z,7.80
2019-05-15T04:33:39.847Z,7.85
2019-05-15T04:36:13.438Z,7.98
2019-05-15T04:38:49.384Z,8.09
2019-05-15T04:41:22.701Z,8.18
2019-05-15T04:43:55.288Z,8.25
2019-05-15T04:46:29.950Z,8.33
2019-05-15T04:49:02.641Z,8.38
2019-05-15T04:51:39.087Z,8.44
2019-05-15T04:54:11.905Z,8.50
2019-05-15T04:56:44.587Z,8.55
2019-05-15T04:59:19.708Z,8.60
2019-05-15T05:02:13.049Z,8.66
2019-05-15T05:04:49.757Z,8.72
2019-05-15T05:07:22.595Z,8.80
2019-05-15T05:09:56.007Z,8.86
2019-05-15T05:12:30.165Z,8.92
2019-05-15T05:15:08.273Z,9.00
2019-05-15T05:17:41.117Z,9.07
2019-05-15T05:20:14.501Z,9.14
2019-05-15T05:22:48.317Z,9.23
2019-05-15T05:25:21.287Z,9.33
2019-05-15T05:27:53.903Z,9.43
2019-05-15T05:30:26.420Z,9.52
2019-05-15T05:32:58.835Z,9.60
2019-05-15T05:35:31.405Z,9.68
2019-05-15T05:38:03.933Z,9.76
2019-05-15T05:40:38.458Z,9.84
2019-05-15T05:43:11.163Z,9.92
2019-05-15T05:45:44.987Z,10.00
2019-05-15T05:48:18.889Z,10.11
2019-05-15T05:50:51.719Z,10.17
2019-05-15T05:53:24.960Z,10.27
2019-05-15T05:55:59.277Z,10.35
2019-05-15T05:58:32.440Z,10.41
2019-05-15T06:01:05.064Z,10.46
2019-05-15T06:03:38.579Z,10.55
2019-05-15T06:06:11.446Z,10.63
2019-05-15T06:08:48.023Z,10.73
2019-05-15T06:11:22.776Z,10.84
2019-05-15T06:13:58.221Z,10.93
2019-05-15T06:16:31.212Z,11.02
2019-05-15T06:19:04.112Z,11.16
2019-05-15T06:21:39.164Z,11.24
2019-05-15T06:24:19.488Z,11.34
2019-05-15T06:26:52.391Z,11.43
2019-05-15T06:29:28.324Z,11.49
2019-05-15T06:32:01.807Z,11.54
2019-05-15T06:34:34.355Z,11.59
2019-05-15T06:37:08.325Z,11.62
2019-05-15T06:39:41.761Z,11.68
2019-05-15T06:42:14.649Z,11.72
2019-05-15T06:44:48.411Z,11.76
2019-05-15T06:47:21.419Z,11.79
2019-05-15T06:49:57.997Z,11.82
2019-05-15T06:52:30.856Z,11.83
2019-05-15T06:55:03.801Z,11.86
2019-05-15T06:57:39.357Z,11.92
2019-05-15T07:00:16.327Z,12.07
2019-05-15T07:02:48.901Z,12.17
2019-05-15T07:05:24.394Z,12.19
2019-05-15T07:08:00.430Z,12.26
2019-05-15T07:10:34.660Z,12.36
2019-05-15T07:13:09.269Z,12.45
2019-05-15T07:15:41.832Z,12.51
2019-05-15T07:18:15.746Z,12.48
2019-05-15T07:20:51.359Z,12.48
2019-05-15T07:23:27.090Z,12.57
2019-05-15T07:26:04.253Z,12.60
2019-05-15T07:28:39.543Z,12.66
2019-05-15T07:31:12.525Z,12.69
2019-05-15T07:33:48.837Z,12.71
2019-05-15T07:36:21.879Z,12.72
2019-05-15T07:38:58.060Z,12.68
2019-05-15T07:41:32.112Z,12.75
2019-05-15T07:44:04.998Z,12.76
2019-05-15T07:46:38.267Z,12.78
2019-05-15T07:49:11.137Z,12.82
2019-05-15T07:51:44.223Z,12.85
2019-05-15T07:54:18.215Z,12.90
2019-05-15T07:56:55.564Z,12.96
2019-05-15T07:59:28.181Z,12.99
2019-05-15T08:02:01.253Z,13.07
2019-05-15T08:04:38.180Z,13.16
2019-05-15T08:07:18.451Z,13.29
2019-05-15T08:09:53.501Z,13.40
2019-05-15T08:12:28.318Z,13.44
2019-05-15T08:15:09.463Z,13.44
2019-05-15T08:18:00.310Z,13.47
2019-05-15T08:20:42.093Z,13.51
2019-05-15T08:23:15.630Z,13.54
2019-05-15T08:25:49.946Z,13.60
2019-05-15T08:28:23.135Z,13.69
2019-05-15T08:30:58.394Z,13.75
2019-05-15T08:33:48.120Z,13.80
2019-05-15T08:36:23.934Z,13.89
2019-05-15T08:38:59.083Z,13.96
2019-05-15T08:41:31.756Z,14.04
2019-05-15T08:44:05.523Z,14.07
2019-05-15T08:46:39.091Z,14.22
2019-05-15T08:49:11.776Z,14.40
2019-05-15T08:51:48.474Z,14.54
2019-05-15T08:54:23.296Z,14.65
2019-05-15T08:56:59.227Z,14.72
2019-05-15T08:59:33.116Z,14.84
2019-05-15T09:02:07.886Z,14.93
2019-05-15T09:04:42.203Z,15.06
2019-05-15T09:07:14.947Z,15.21
2019-05-15T09:09:48.707Z,15.26
2019-05-15T09:12:29.405Z,15.34
2019-05-15T09:15:09.002Z,15.40
2019-05-15T09:17:43.743Z,15.51
2019-05-15T09:20:19.500Z,15.58
2019-05-15T09:22:54.007Z,15.62
2019-05-15T09:25:28.748Z,15.75
2019-05-15T09:28:02.035Z,15.93
2019-05-15T09:30:35.587Z,16.01
2019-05-15T09:33:12.129Z,16.07
2019-05-15T09:35:44.731Z,16.18
2019-05-15T09:38:19.226Z,16.28
2019-05-15T09:40:52.484Z,16.44
2019-05-15T09:43:25.062Z,16.57
2019-05-15T09:46:07.417Z,16.78
2019-05-15T09:48:47.464Z,16.79
2019-05-15T09:51:23.628Z,16.74
2019-05-15T09:53:59.379Z,16.74
2019-05-15T09:56:32.339Z,16.91
2019-05-15T09:59:05.692Z,17.04
2019-05-15T10:01:39.724Z,17.18
2019-05-15T10:04:14.195Z,17.27
2019-05-15T10:06:48.553Z,17.42
2019-05-15T10:09:28.283Z,17.58
2019-05-15T10:12:04.898Z,17.80
2019-05-15T10:14:39.638Z,17.93
2019-05-15T10:17:14.247Z,18.05
2019-05-15T10:19:48.860Z,18.09
2019-05-15T10:22:23.498Z,18.11
2019-05-15T10:24:58.587Z,18.15
2019-05-15T10:27:33.315Z,18.25
2019-05-15T10:30:09.175Z,18.36
2019-05-15T10:32:44.584Z,18.50
2019-05-15T10:35:27.744Z,18.57
2019-05-15T10:38:08.871Z,18.49
2019-05-15T10:40:58.570Z,18.43
2019-05-15T10:43:46.580Z,18.62
2019-05-15T10:46:22.259Z,18.89
2019-05-15T10:48:55.467Z,19.10
2019-05-15T10:51:32.157Z,19.40
2019-05-15T10:54:08.354Z,19.64
2019-05-15T10:56:41.271Z,19.66
2019-05-15T10:59:14.490Z,19.63
2019-05-15T11:01:48.865Z,19.74
2019-05-15T11:04:23.193Z,19.77
2019-05-15T11:06:58.142Z,19.91
2019-05-15T11:09:31.500Z,20.00
2019-05-15T11:12:05.959Z,20.09
2019-05-15T11:14:40.067Z,20.44
2019-05-15T11:17:14.684Z,20.62
2019-05-15T11:19:49.812Z,20.80
2019-05-15T11:22:23.388Z,20.88
2019-05-15T11:24:59.500Z,20.96
2019-05-15T11:27:35.212Z,21.02
2019-05-15T11:30:09.741Z,20.97
2019-05-15T11:32:48.616Z,20.91
2019-05-15T11:35:21.496Z,21.08
2019-05-15T11:37:57.055Z,21.16
2019-05-15T11:40:30.165Z,21.25
2019-05-15T11:43:02.957Z,21.18
2019-05-15T11:45:39.261Z,21.14
2019-05-15T11:48:12.840Z,21.00
2019-05-15T11:50:45.568Z,21.10
2019-05-15T11:53:19.256Z,21.25
2019-05-15T11:55:52.146Z,21.27
2019-05-15T11:58:28.297Z,21.26
2019-05-15T12:01:01.011Z,21.49
2019-05-15T12:03:33.669Z,21.68
2019-05-15T12:06:18.678Z,21.70
2019-05-15T12:08:53.373Z,21.62
2019-05-15T12:11:33.245Z,21.74
2019-05-15T12:14:09.600Z,21.77
2019-05-15T12:16:42.070Z,21.67
2019-05-15T12:19:17.471Z,21.78
2019-05-15T12:21:50.220Z,21.96
2019-05-15T12:24:31.420Z,22.01
2019-05-15T12:27:15.336Z,22.05
2019-05-15T12:29:51.825Z,21.95
2019-05-15T12:32:33.186Z,22.08
2019-05-15T12:35:09.304Z,22.09
2019-05-15T12:37:44.122Z,22.23
2019-05-15T13:01:44.829Z,22.53
2019-05-15T13:04:20.014Z,22.69
2019-05-15T13:07:10.433Z,22.88
2019-05-15T13:09:48.675Z,23.10
2019-05-15T13:12:28.597Z,23.33
2019-05-15T13:15:04.367Z,23.46
2019-05-15T13:17:38.771Z,23.52
2019-05-15T13:20:12.619Z,23.60
2019-05-15T13:25:23.308Z,23.83
2019-05-15T13:27:58.054Z,23.43
2019-05-15T13:30:31.777Z,23.15
2019-05-15T13:33:05.188Z,22.98
2019-05-15T13:35:41.580Z,22.80
2019-05-15T13:38:18.259Z,22.75
2019-05-15T13:40:53.896Z,22.73
2019-05-15T13:43:28.782Z,22.83
2019-05-15T13:46:08.600Z,22.84
2019-05-15T13:48:42.512Z,23.09
2019-05-15T13:51:15.177Z,23.13
2019-05-15T13:53:49.063Z,23.07
2019-05-15T13:56:23.718Z,23.10
2019-05-15T13:58:58.534Z,23.05
2019-05-15T14:01:31.524Z,23.10
2019-05-15T14:04:04.910Z,23.15
2019-05-15T14:06:37.980Z,23.12
2019-05-15T14:09:11.093Z,23.20
2019-05-15T14:11:44.828Z,23.04
2019-05-15T14:14:19.484Z,22.90
2019-05-15T14:16:52.146Z,22.92
2019-05-15T14:19:27.887Z,22.89
2019-05-15T14:22:03.785Z,22.63
2019-05-15T14:24:38.226Z,22.57
2019-05-15T14:27:11.002Z,22.51
2019-05-15T14:29:43.568Z,22.61
2019-05-15T14:32:32.771Z,22.58
2019-05-15T14:35:09.262Z,22.48
2019-05-15T14:37:42.800Z,22.48
2019-05-15T14:40:17.777Z,22.49
2019-05-15T14:42:50.450Z,22.63
2019-05-15T14:45:23.347Z,22.88
2019-05-15T14:47:58.155Z,22.83
2019-05-15T14:50:34.855Z,22.47
2019-05-15T14:53:11.278Z,22.38
2019-05-15T14:55:51.630Z,22.13
2019-05-15T14:58:24.751Z,21.92
2019-05-15T15:01:03.335Z,22.06
2019-05-15T15:03:38.729Z,22.11
2019-05-15T15:06:12.012Z,22.34
2019-05-15T15:08:46.457Z,22.59
2019-05-15T15:11:24.833Z,22.81
2019-05-15T15:13:57.897Z,22.78
2019-05-15T15:16:30.730Z,22.72
2019-05-15T15:19:03.516Z,22.78
2019-05-15T15:21:38.399Z,22.81
2019-05-15T15:24:11.305Z,23.00
2019-05-15T15:26:44.910Z,23.01
2019-05-15T15:29:19.588Z,22.91
2019-05-15T15:31:53.505Z,22.59
2019-05-15T15:34:29.179Z,22.56
2019-05-15T15:37:02.394Z,22.80
2019-05-15T15:39:38.506Z,22.87
2019-05-15T15:42:14.110Z,22.96
2019-05-15T15:44:48.921Z,22.94
2019-05-15T15:47:23.121Z,22.81
2019-05-15T15:49:55.767Z,22.78
2019-05-15T15:52:29.007Z,22.82
2019-05-15T15:55:02.354Z,22.89
2019-05-15T15:57:35.771Z,22.86
2019-05-15T16:00:08.824Z,22.78
2019-05-15T16:02:45.348Z,22.54
2019-05-15T16:05:29.097Z,22.40
2019-05-15T16:08:05.726Z,22.22
2019-05-15T16:10:48.321Z,22.07
2019-05-15T16:13:31.076Z,22.07
2019-05-15T16:16:05.431Z,22.16
2019-05-15T16:18:38.846Z,22.23
2019-05-15T16:21:11.692Z,22.13
2019-05-15T16:23:44.566Z,22.16
2019-05-15T16:26:19.978Z,22.11
2019-05-15T16:28:53.988Z,22.08
2019-05-15T16:31:27.986Z,21.92
2019-05-15T16:34:02.113Z,21.73
2019-05-15T16:36:38.473Z,21.50
2019-05-15T16:39:14.060Z,21.48
2019-05-15T16:41:49.643Z,21.47
2019-05-15T16:44:24.159Z,21.41
2019-05-15T16:46:59.017Z,21.34
2019-05-15T16:49:32.583Z,21.36
2019-05-15T16:52:09.218Z,21.36
2019-05-15T16:54:42.505Z,21.26
2019-05-15T16:57:18.339Z,21.14
2019-05-15T16:59:52.337Z,21.10
2019-05-15T17:02:28.226Z,21.16
2019-05-15T17:05:06.479Z,21.20
2019-05-15T17:07:39.765Z,21.05
2019-05-15T17:10:13.208Z,20.78
2019-05-15T17:12:49.284Z,20.65
2019-05-15T17:15:28.387Z,20.46
2019-05-15T17:18:03.349Z,20.49
2019-05-15T17:20:40.213Z,20.44
2019-05-15T17:23:18.740Z,20.25
2019-05-15T17:25:58.114Z,20.05
2019-05-15T17:28:31.861Z,19.96
2019-05-15T17:31:09.280Z,19.74
2019-05-15T17:33:43.056Z,19.58
2019-05-15T17:36:19.750Z,19.47
2019-05-15T17:38:58.027Z,19.44
2019-05-15T17:41:30.764Z,19.43
2019-05-15T17:44:05.584Z,19.40
2019-05-15T17:46:40.481Z,19.33
2019-05-15T17:49:16.557Z,19.25
2019-05-15T17:51:50.662Z,19.14
2019-05-15T17:54:25.240Z,19.07
2019-05-15T17:57:00.819Z,18.95
2019-05-15T17:59:37.827Z,18.79
2019-05-15T18:02:13.040Z,18.60
2019-05-15T18:04:47.951Z,18.52
2019-05-15T18:07:21.718Z,18.48
2019-05-15T18:09:55.173Z,18.48
2019-05-15T18:12:29.374Z,18.43
2019-05-15T18:15:06.099Z,18.43
2019-05-15T18:17:43.375Z,18.30
2019-05-15T18:20:25.951Z,18.34
2019-05-15T18:22:59.341Z,18.24
2019-05-15T18:25:33.119Z,18.15
2019-05-15T18:28:08.481Z,18.09
2019-05-15T18:30:41.618Z,17.91
2019-05-15T18:33:15.924Z,17.65
2019-05-15T18:35:50.541Z,17.50
2019-05-15T18:38:23.935Z,17.46
2019-05-15T18:40:58.683Z,17.26
2019-05-15T18:43:32.553Z,17.14
2019-05-15T18:46:09.880Z,17.01
2019-05-15T18:48:45.430Z,17.04
2019-05-15T18:51:20.602Z,16.84
2019-05-15T18:53:55.153Z,16.71
2019-05-15T18:56:29.775Z,16.60
2019-05-15T18:59:08.348Z,16.54
2019-05-15T19:01:41.977Z,16.46
2019-05-15T19:04:15.518Z,16.36
2019-05-15T19:06:49.042Z,16.28
2019-05-15T19:09:28.257Z,16.23
2019-05-15T19:12:02.377Z,16.15
2019-05-15T19:14:37.016Z,16.23
2019-05-15T19:17:14.602Z,16.23
2019-05-15T19:19:48.992Z,16.04
2019-05-15T19:22:25.366Z,15.92
2019-05-15T19:24:59.961Z,15.84
2019-05-15T19:27:33.624Z,15.74
2019-05-15T19:30:08.533Z,15.80
2019-05-15T19:32:43.577Z,15.62
2019-05-15T19:35:18.416Z,15.54
2019-05-15T19:37:51.606Z,15.44
2019-05-15T19:40:28.371Z,15.32
2019-05-15T19:43:04.069Z,15.21
2019-05-15T19:45:43.039Z,15.23
2019-05-15T19:48:17.769Z,15.07
2019-05-15T19:50:54.650Z,14.94
2019-05-15T19:53:42.408Z,14.86
2019-05-15T19:56:19.453Z,14.77
2019-05-15T19:58:52.310Z,14.65
2019-05-15T20:01:28.040Z,14.58
2019-05-15T20:04:01.937Z,14.47
2019-05-15T20:06:35.960Z,14.34
2019-05-15T20:09:09.644Z,14.28
2019-05-15T20:11:43.076Z,14.14
2019-05-15T20:14:18.272Z,14.05
2019-05-15T20:16:53.132Z,13.96
2019-05-15T20:19:28.805Z,13.87
2019-05-15T20:22:01.681Z,13.77
2019-05-15T20:24:38.256Z,13.67
2019-05-15T20:27:11.573Z,13.59
2019-05-15T20:29:44.072Z,13.53
2019-05-15T20:32:18.429Z,13.59
2019-05-15T20:34:52.096Z,13.47
2019-05-15T20:37:28.667Z,13.35
2019-05-15T20:40:02.429Z,13.23
2019-05-15T20:42:38.091Z,13.16
2019-05-15T20:45:14.644Z,13.10
2019-05-15T20:47:49.922Z,13.06
2019-05-15T20:50:24.596Z,13.00
2019-05-15T20:52:59.150Z,12.96
2019-05-15T20:55:33.244Z,12.88
2019-05-15T20:58:08.016Z,12.78
2019-05-15T21:00:44.338Z,12.73
2019-05-15T21:03:18.722Z,12.69
2019-05-15T21:05:57.777Z,12.65
2019-05-15T21:08:34.547Z,12.63
2019-05-15T21:11:11.873Z,12.58
2019-05-15T21:13:46.163Z,12.51
2019-05-15T21:16:19.194Z,12.63
2019-05-15T21:18:57.610Z,12.53
2019-05-15T21:21:43.519Z,12.48
2019-05-15T21:24:21.520Z,12.44
2019-05-15T21:26:54.187Z,12.41
2019-05-15T21:29:28.266Z,12.37
2019-05-15T21:32:01.765Z,12.31
2019-05-15T21:34:40.653Z,12.29
2019-05-15T21:37:18.736Z,12.22
2019-05-15T21:39:58.986Z,12.18
2019-05-15T21:42:32.630Z,12.16
2019-05-15T21:45:13.703Z,12.09
2019-05-15T21:47:47.465Z,12.15
2019-05-15T21:50:21.064Z,12.07
2019-05-15T21:52:55.367Z,12.03
2019-05-15T21:55:29.344Z,11.98
2019-05-15T21:58:08.682Z,11.90
2019-05-15T22:00:48.499Z,11.84
2019-05-15T22:03:22.172Z,11.78
2019-05-15T22:05:55.577Z,11.72
2019-05-15T22:08:28.983Z,11.71
2019-05-15T22:11:03.235Z,11.83
2019-05-15T22:13:35.981Z,11.73
2019-05-15T22:16:10.354Z,11.66
2019-05-15T22:18:43.579Z,11.60
2019-05-15T22:21:18.653Z,11.57
2019-05-15T22:23:52.879Z,11.52
2019-05-15T22:26:25.670Z,11.47
2019-05-15T22:28:58.476Z,11.46
2019-05-15T22:31:33.151Z,11.47
2019-05-15T22:34:07.763Z,11.48
2019-05-15T22:36:40.895Z,11.49
2019-05-15T22:39:15.713Z,11.52
2019-05-15T22:41:49.693Z,11.52
2019-05-15T22:44:22.346Z,11.51
2019-05-15T22:46:58.151Z,11.49
2019-05-15T22:49:30.798Z,11.58
2019-05-15T22:52:04.012Z,11.61
2019-05-15T22:54:38.559Z,11.51
2019-05-15T22:57:11.420Z,11.43
2019-05-15T22:59:44.215Z,11.41
2019-05-15T23:02:18.555Z,11.37
2019-05-15T23:04:51.934Z,11.32
2019-05-15T23:07:24.620Z,11.27
2019-05-15T23:09:58.281Z,11.23
2019-05-15T23:12:30.997Z,11.22
2019-05-15T23:15:08.585Z,11.22
2019-05-15T23:17:42.542Z,11.17
2019-05-15T23:20:17.741Z,11.13
2019-05-15T23:22:50.471Z,11.12
2019-05-15T23:25:23.012Z,11.10
2019-05-15T23:27:58.206Z,11.03
2019-05-15T23:30:32.043Z,11.00
2019-05-15T23:33:04.695Z,10.94
2019-05-15T23:35:40.802Z,10.89
2019-05-15T23:38:15.999Z,10.85
2019-05-15T23:40:48.580Z,10.94
2019-05-15T23:43:22.811Z,10.98
2019-05-15T23:45:55.351Z,10.90
2019-05-15T23:48:28.443Z,10.82
2019-05-15T23:51:01.929Z,10.79
2019-05-15T23:53:35.177Z,10.79
2019-05-15T23:56:09.348Z,10.79
2019-05-15T23:58:42.147Z,10.76
